Time;durP1;ratioP1;P1;durP2;ratioP2;P2;SDS_P1;SDS_P2;PMS_P1;PMS_P2;Temp;Humidity;BMP_temperature;BMP_pressure;BME280_temperature;BME280_humidity;BME280_pressure;Samples;Min_cycle;Max_cycle;Signal;HPM_P1;HPM_P2
2021/03/30 00:00:10;;;;;;;10.73;6.70;;;;;;;;;;5050601;28;20197;-68
2021/03/30 00:02:35;;;;;;;12.67;7.17;;;;;;;;;;5043985;28;20186;-66
2021/03/30 00:05:00;;;;;;;9.60;6.97;;;;;;;;;;5047985;28;20178;-67
2021/03/30 00:07:26;;;;;;;8.83;6.90;;;;;;;;;;5044789;28;20568;-68
2021/03/30 00:09:51;;;;;;;9.33;6.47;;;;;;;;;;5051566;28;20233;-67
2021/03/30 00:12:16;;;;;;;9.83;6.67;;;;;;;;;;5051606;28;20189;-68
2021/03/30 00:14:41;;;;;;;9.47;6.77;;;;;;;;;;5051381;28;20224;-68
2021/03/30 00:17:06;;;;;;;11.50;7.30;;;;;;;;;;5050500;28;20665;-69
2021/03/30 00:19:32;;;;;;;11.30;6.30;;;;;;;;;;5046836;28;20644;-68
2021/03/30 00:21:57;;;;;;;10.27;7.03;;;;;;;;;;5046401;28;20181;-68
2021/03/30 00:24:22;;;;;;;9.40;7.10;;;;;;;;;;5049409;28;20260;-68
2021/03/30 00:26:47;;;;;;;8.93;6.67;;;;;;;;;;5047960;28;20221;-69
2021/03/30 00:29:12;;;;;;;9.77;7.27;;;;;;;;;;5050762;28;20178;-68
2021/03/30 00:31:38;;;;;;;8.77;6.73;;;;;;;;;;5044476;28;20224;-69
2021/03/30 00:34:03;;;;;;;9.13;7.63;;;;;;;;;;5047867;28;20217;-69
2021/03/30 00:36:28;;;;;;;14.87;8.73;;;;;;;;;;5048324;28;20177;-69
2021/03/30 00:38:53;;;;;;;11.33;7.23;;;;;;;;;;5041858;28;20178;-68
2021/03/30 00:41:18;;;;;;;10.90;8.17;;;;;;;;;;5048301;28;20229;-69
2021/03/30 00:43:43;;;;;;;10.90;8.33;;;;;;;;;;5051964;28;20562;-68
2021/03/30 00:46:13;;;;;;;11.67;8.47;;;;;;;;;;5046441;28;20204;-68
2021/03/30 00:48:38;;;;;;;8.70;6.77;;;;;;;;;;5046061;28;20262;-67
2021/03/30 00:51:03;;;;;;;12.30;8.27;;;;;;;;;;5049577;28;20333;-68
2021/03/30 00:53:28;;;;;;;8.77;6.80;;;;;;;;;;5040081;28;20186;-67
2021/03/30 00:55:53;;;;;;;12.43;8.73;;;;;;;;;;5045290;28;20178;-67
2021/03/30 00:58:19;;;;;;;12.00;7.47;;;;;;;;;;5039591;28;20217;-68
2021/03/30 01:00:44;;;;;;;10.03;7.90;;;;;;;;;;5042004;28;20239;-66
2021/03/30 01:03:09;;;;;;;14.53;9.23;;;;;;;;;;5045780;28;20661;-67
2021/03/30 01:05:34;;;;;;;14.00;9.23;;;;;;;;;;5048371;28;20170;-67
2021/03/30 01:08:18;;;;;;;12.73;9.03;;;;;;;;;;5053529;28;20193;-68
2021/03/30 01:10:43;;;;;;;14.47;11.07;;;;;;;;;;5044496;28;20194;-68
2021/03/30 01:13:23;;;;;;;11.73;8.50;;;;;;;;;;5046164;28;20189;-68
2021/03/30 01:15:54;;;;;;;14.97;9.40;;;;;;;;;;5044020;28;20323;-67
2021/03/30 01:18:27;;;;;;;11.83;9.27;;;;;;;;;;5045403;28;20194;-67
2021/03/30 01:21:03;;;;;;;13.07;9.30;;;;;;;;;;5047736;28;20281;-67
2021/03/30 01:23:31;;;;;;;14.03;9.23;;;;;;;;;;5048183;28;20208;-67
2021/03/30 01:26:17;;;;;;;13.97;8.47;;;;;;;;;;5048264;28;20228;-68
2021/03/30 01:28:42;;;;;;;9.87;7.97;;;;;;;;;;5043649;28;20185;-68
2021/03/30 01:31:07;;;;;;;14.27;9.23;;;;;;;;;;5051129;28;20757;-68
2021/03/30 01:33:33;;;;;;;13.30;9.17;;;;;;;;;;5047009;28;20197;-68
2021/03/30 01:36:00;;;;;;;12.17;8.97;;;;;;;;;;5043904;28;20178;-68
2021/03/30 01:38:26;;;;;;;12.53;9.13;;;;;;;;;;5039831;28;20539;-67
2021/03/30 01:40:52;;;;;;;13.60;9.30;;;;;;;;;;5048897;28;20202;-67
2021/03/30 01:43:18;;;;;;;16.27;9.03;;;;;;;;;;5049734;28;20655;-67
2021/03/30 01:45:44;;;;;;;16.70;9.17;;;;;;;;;;5044330;28;20632;-67
2021/03/30 01:48:09;;;;;;;12.63;9.23;;;;;;;;;;5043194;28;20185;-68
2021/03/30 01:50:35;;;;;;;15.60;9.27;;;;;;;;;;5049304;28;20205;-68
2021/03/30 01:53:00;;;;;;;12.27;9.17;;;;;;;;;;5046907;28;20235;-68
2021/03/30 01:55:27;;;;;;;15.87;9.57;;;;;;;;;;5048781;28;20178;-68
2021/03/30 01:57:53;;;;;;;14.87;10.37;;;;;;;;;;5046650;28;20213;-66
2021/03/30 02:00:21;;;;;;;13.73;8.43;;;;;;;;;;5046287;28;20205;-67
2021/03/30 02:02:46;;;;;;;15.73;9.50;;;;;;;;;;5047031;28;20192;-67
2021/03/30 02:05:14;;;;;;;12.27;9.90;;;;;;;;;;5040858;28;20177;-67
2021/03/30 02:07:41;;;;;;;16.23;10.87;;;;;;;;;;5045632;28;20182;-67
2021/03/30 02:10:12;;;;;;;13.90;10.70;;;;;;;;;;5046285;28;20246;-68
2021/03/30 02:12:42;;;;;;;13.03;9.87;;;;;;;;;;5049841;28;20293;-68
2021/03/30 02:15:17;;;;;;;15.90;10.47;;;;;;;;;;5051225;28;20264;-68
2021/03/30 02:17:44;;;;;;;16.90;11.40;;;;;;;;;;5047356;28;20217;-67
2021/03/30 02:20:15;;;;;;;14.37;11.00;;;;;;;;;;5050883;28;20245;-68
2021/03/30 02:22:50;;;;;;;14.03;9.70;;;;;;;;;;5047327;28;20239;-68
2021/03/30 02:25:17;;;;;;;13.43;9.43;;;;;;;;;;5042649;28;20173;-67
2021/03/30 02:27:43;;;;;;;13.77;9.53;;;;;;;;;;5047648;28;20239;-68
2021/03/30 02:30:09;;;;;;;11.00;8.97;;;;;;;;;;5050799;28;20581;-67
2021/03/30 02:32:34;;;;;;;12.47;8.97;;;;;;;;;;5045461;28;20204;-67
2021/03/30 02:35:02;;;;;;;14.53;10.20;;;;;;;;;;5046413;28;20182;-67
2021/03/30 02:37:28;;;;;;;15.47;10.50;;;;;;;;;;5043668;28;20201;-67
2021/03/30 02:39:53;;;;;;;11.63;9.00;;;;;;;;;;5045527;28;20562;-67
2021/03/30 02:42:19;;;;;;;13.87;9.60;;;;;;;;;;5045859;28;20182;-67
2021/03/30 02:44:45;;;;;;;15.30;10.47;;;;;;;;;;5042724;28;20295;-67
2021/03/30 02:47:10;;;;;;;13.30;10.20;;;;;;;;;;5051474;28;20632;-67
2021/03/30 02:49:36;;;;;;;13.67;9.83;;;;;;;;;;5046758;28;20272;-68
2021/03/30 02:52:01;;;;;;;14.60;10.17;;;;;;;;;;5053372;28;20240;-68
2021/03/30 02:54:27;;;;;;;11.80;9.57;;;;;;;;;;5044820;28;20213;-68
2021/03/30 02:56:57;;;;;;;12.87;10.57;;;;;;;;;;5051660;28;20289;-69
2021/03/30 02:59:22;;;;;;;13.37;9.80;;;;;;;;;;5053179;28;20169;-68
2021/03/30 03:01:49;;;;;;;16.87;10.17;;;;;;;;;;5050908;28;20182;-68
2021/03/30 03:04:14;;;;;;;15.27;9.93;;;;;;;;;;5045471;28;20693;-69
2021/03/30 03:06:40;;;;;;;19.93;10.60;;;;;;;;;;5049375;28;20265;-69
2021/03/30 03:09:06;;;;;;;16.70;9.93;;;;;;;;;;5049210;28;21410;-69
2021/03/30 03:11:32;;;;;;;15.37;11.33;;;;;;;;;;5055752;28;20193;-69
2021/03/30 03:13:57;;;;;;;16.00;11.60;;;;;;;;;;5051212;28;20554;-68
2021/03/30 03:16:23;;;;;;;23.27;11.60;;;;;;;;;;5049857;28;20185;-68
2021/03/30 03:18:49;;;;;;;18.67;12.17;;;;;;;;;;5050467;28;20218;-69
2021/03/30 03:21:15;;;;;;;15.30;10.70;;;;;;;;;;5059778;28;20327;-68
2021/03/30 03:23:41;;;;;;;16.63;11.67;;;;;;;;;;5048968;28;20185;-69
2021/03/30 03:26:06;;;;;;;14.70;10.63;;;;;;;;;;5048891;28;20550;-69
2021/03/30 03:28:32;;;;;;;15.80;11.53;;;;;;;;;;5053690;28;20185;-67
2021/03/30 03:30:57;;;;;;;19.57;12.77;;;;;;;;;;5050964;28;20205;-67
2021/03/30 03:33:22;;;;;;;19.07;12.83;;;;;;;;;;5045448;28;20722;-68
2021/03/30 03:36:00;;;;;;;20.03;12.57;;;;;;;;;;5053899;28;20675;-68
2021/03/30 03:38:26;;;;;;;18.70;13.03;;;;;;;;;;5050475;28;20224;-68
2021/03/30 03:40:51;;;;;;;23.93;12.80;;;;;;;;;;5047992;28;20209;-67
2021/03/30 03:43:16;;;;;;;18.13;12.20;;;;;;;;;;5052453;28;20260;-67
2021/03/30 03:45:41;;;;;;;16.20;12.53;;;;;;;;;;5051181;28;20662;-66
2021/03/30 03:48:06;;;;;;;23.40;14.13;;;;;;;;;;5051518;28;20256;-67
2021/03/30 03:50:32;;;;;;;22.87;13.10;;;;;;;;;;5050580;28;20706;-67
2021/03/30 03:52:57;;;;;;;17.70;12.67;;;;;;;;;;5052358;28;20174;-67
2021/03/30 03:55:22;;;;;;;20.30;13.17;;;;;;;;;;5044836;28;20180;-67
2021/03/30 03:57:51;;;;;;;20.67;13.03;;;;;;;;;;5049551;28;20209;-68
2021/03/30 04:00:17;;;;;;;20.03;12.60;;;;;;;;;;5051466;28;20194;-67
2021/03/30 04:02:46;;;;;;;20.83;12.80;;;;;;;;;;5045202;28;20178;-68
2021/03/30 04:05:13;;;;;;;17.03;12.90;;;;;;;;;;5046400;28;20194;-68
2021/03/30 04:07:51;;;;;;;19.07;12.97;;;;;;;;;;5051152;28;20186;-67
2021/03/30 04:10:21;;;;;;;17.57;13.10;;;;;;;;;;5049350;28;20280;-67
2021/03/30 04:12:46;;;;;;;22.00;13.37;;;;;;;;;;5050200;28;20583;-68
2021/03/30 04:15:12;;;;;;;20.40;14.47;;;;;;;;;;5042574;28;20238;-67
2021/03/30 04:17:39;;;;;;;20.30;13.57;;;;;;;;;;5049148;28;20205;-67
2021/03/30 04:20:09;;;;;;;20.63;13.30;;;;;;;;;;5052470;28;20220;-68
2021/03/30 04:22:34;;;;;;;21.80;13.67;;;;;;;;;;5048168;28;20269;-67
2021/03/30 04:24:59;;;;;;;17.53;13.60;;;;;;;;;;5046727;28;20228;-67
2021/03/30 04:27:24;;;;;;;20.23;13.83;;;;;;;;;;5046901;28;20655;-68
2021/03/30 04:29:49;;;;;;;20.63;14.33;;;;;;;;;;5050843;28;20228;-66
2021/03/30 04:32:14;;;;;;;21.37;14.73;;;;;;;;;;5051249;28;20691;-68
2021/03/30 04:34:40;;;;;;;23.50;15.20;;;;;;;;;;5052088;28;20177;-67
2021/03/30 04:37:05;;;;;;;23.17;14.83;;;;;;;;;;5049332;28;20675;-68
2021/03/30 04:39:30;;;;;;;29.93;18.17;;;;;;;;;;5052419;28;20181;-67
2021/03/30 04:41:55;;;;;;;23.43;16.83;;;;;;;;;;5049347;28;20178;-68
2021/03/30 04:44:20;;;;;;;24.00;17.07;;;;;;;;;;5046754;28;20170;-69
2021/03/30 04:46:46;;;;;;;28.50;18.17;;;;;;;;;;5045523;28;20173;-69
2021/03/30 04:49:11;;;;;;;28.57;18.10;;;;;;;;;;5050057;28;20177;-69
2021/03/30 04:51:36;;;;;;;26.20;17.43;;;;;;;;;;5051835;28;20208;-69
2021/03/30 04:54:01;;;;;;;28.90;19.00;;;;;;;;;;5052179;28;20263;-68
2021/03/30 04:56:27;;;;;;;29.77;19.00;;;;;;;;;;5045720;28;20174;-68
2021/03/30 04:58:52;;;;;;;28.17;18.83;;;;;;;;;;5049530;28;20259;-69
2021/03/30 05:01:17;;;;;;;29.30;18.27;;;;;;;;;;5043399;28;20268;-67
2021/03/30 05:03:42;;;;;;;27.97;18.87;;;;;;;;;;5042749;28;20177;-69
2021/03/30 05:06:08;;;;;;;29.70;18.37;;;;;;;;;;5047218;28;20177;-67
2021/03/30 05:08:33;;;;;;;31.63;21.17;;;;;;;;;;5045806;28;20669;-68
2021/03/30 05:10:59;;;;;;;27.63;19.17;;;;;;;;;;5046068;28;20208;-68
2021/03/30 05:13:24;;;;;;;35.17;19.77;;;;;;;;;;5048393;28;20587;-67
2021/03/30 05:15:49;;;;;;;26.40;17.90;;;;;;;;;;5052541;28;20657;-68
2021/03/30 05:18:14;;;;;;;26.40;18.20;;;;;;;;;;5046471;28;20252;-67
2021/03/30 05:20:40;;;;;;;28.80;17.50;;;;;;;;;;5048774;28;20259;-67
2021/03/30 05:23:05;;;;;;;26.63;17.83;;;;;;;;;;5049133;28;20178;-67
2021/03/30 05:25:30;;;;;;;32.70;19.90;;;;;;;;;;5050332;28;20184;-67
2021/03/30 05:27:55;;;;;;;34.40;21.50;;;;;;;;;;5051180;28;20260;-67
2021/03/30 05:30:21;;;;;;;37.47;22.53;;;;;;;;;;5046357;28;20200;-68
2021/03/30 05:32:46;;;;;;;31.53;20.97;;;;;;;;;;5047132;28;20200;-70
2021/03/30 05:35:12;;;;;;;35.50;22.07;;;;;;;;;;5056372;28;21741;-68
2021/03/30 05:37:37;;;;;;;34.27;20.87;;;;;;;;;;5046696;28;20213;-67
2021/03/30 05:40:07;;;;;;;32.03;22.20;;;;;;;;;;5049804;28;20698;-68
2021/03/30 05:42:33;;;;;;;31.50;20.40;;;;;;;;;;5048476;28;20194;-67
2021/03/30 05:44:58;;;;;;;31.13;20.40;;;;;;;;;;5046721;28;20189;-66
2021/03/30 05:47:28;;;;;;;30.00;20.20;;;;;;;;;;5050345;28;20178;-67
2021/03/30 05:49:54;;;;;;;34.23;21.40;;;;;;;;;;5047363;28;20578;-67
2021/03/30 05:52:28;;;;;;;31.13;20.83;;;;;;;;;;5048570;28;20185;-68
2021/03/30 05:54:55;;;;;;;33.27;20.77;;;;;;;;;;5042919;28;20177;-69
2021/03/30 05:57:23;;;;;;;38.17;21.47;;;;;;;;;;5050127;28;20237;-68
2021/03/30 05:59:51;;;;;;;38.17;22.70;;;;;;;;;;5046129;28;20220;-68
2021/03/30 06:02:35;;;;;;;36.93;22.33;;;;;;;;;;5048604;28;20201;-66
2021/03/30 06:05:01;;;;;;;37.50;23.10;;;;;;;;;;5041096;28;20189;-67
2021/03/30 06:07:28;;;;;;;36.70;24.00;;;;;;;;;;5045644;28;20230;-68
2021/03/30 06:09:53;;;;;;;40.23;23.70;;;;;;;;;;5044011;28;20284;-67
2021/03/30 06:12:18;;;;;;;37.37;23.60;;;;;;;;;;5043715;28;20264;-67
2021/03/30 06:14:44;;;;;;;41.60;25.47;;;;;;;;;;5050011;28;20716;-67
2021/03/30 06:17:10;;;;;;;43.17;25.67;;;;;;;;;;5044070;28;20280;-67
2021/03/30 06:19:54;;;;;;;41.83;25.57;;;;;;;;;;5044937;28;20204;-68
2021/03/30 06:22:20;;;;;;;36.90;24.17;;;;;;;;;;5051303;28;20173;-66
2021/03/30 06:24:46;;;;;;;41.43;24.27;;;;;;;;;;5050808;28;20181;-67
2021/03/30 06:27:18;;;;;;;36.77;24.20;;;;;;;;;;5045336;28;20177;-67
2021/03/30 06:29:44;;;;;;;36.13;23.03;;;;;;;;;;5052890;28;20194;-68
2021/03/30 06:32:11;;;;;;;35.70;24.60;;;;;;;;;;5051668;28;20615;-68
2021/03/30 06:34:37;;;;;;;35.00;24.43;;;;;;;;;;5053566;28;20186;-67
2021/03/30 06:37:22;;;;;;;38.60;25.47;;;;;;;;;;5046696;28;20206;-68
2021/03/30 06:39:47;;;;;;;34.70;23.73;;;;;;;;;;5052260;28;20263;-67
2021/03/30 06:42:26;;;;;;;30.83;21.07;;;;;;;;;;5041185;28;20170;-68
2021/03/30 06:44:51;;;;;;;36.77;20.50;;;;;;;;;;5045179;28;20183;-67
2021/03/30 06:47:20;;;;;;;30.13;20.13;;;;;;;;;;5048710;28;20185;-68
2021/03/30 06:49:51;;;;;;;33.60;21.17;;;;;;;;;;5052947;28;20197;-68
2021/03/30 06:52:18;;;;;;;30.50;20.50;;;;;;;;;;5052978;28;20197;-68
2021/03/30 06:54:53;;;;;;;32.70;20.73;;;;;;;;;;5040036;28;20174;-68
2021/03/30 06:57:37;;;;;;;34.67;20.90;;;;;;;;;;5048007;28;20207;-68
2021/03/30 07:00:04;;;;;;;31.90;20.43;;;;;;;;;;5048980;28;20660;-67
2021/03/30 07:02:30;;;;;;;32.43;21.03;;;;;;;;;;5049390;28;20192;-68
2021/03/30 07:04:56;;;;;;;30.73;20.77;;;;;;;;;;5050183;28;20174;-68
2021/03/30 07:07:21;;;;;;;36.50;23.07;;;;;;;;;;5048419;28;20987;-68
2021/03/30 07:09:47;;;;;;;34.07;21.87;;;;;;;;;;5051195;28;20233;-68
2021/03/30 07:12:12;;;;;;;37.90;21.53;;;;;;;;;;5045163;28;20264;-67
2021/03/30 07:14:37;;;;;;;35.87;21.67;;;;;;;;;;5051756;28;20185;-68
2021/03/30 07:17:03;;;;;;;34.40;22.97;;;;;;;;;;5051508;28;20202;-67
2021/03/30 07:19:30;;;;;;;38.97;22.97;;;;;;;;;;5052945;28;20178;-67
2021/03/30 07:22:03;;;;;;;33.97;23.23;;;;;;;;;;5051037;28;20261;-66
2021/03/30 07:24:38;;;;;;;39.27;23.67;;;;;;;;;;5044241;28;20699;-67
2021/03/30 07:27:05;;;;;;;41.60;23.63;;;;;;;;;;5031705;28;20235;-68
2021/03/30 07:29:36;;;;;;;35.17;23.27;;;;;;;;;;5024796;28;20174;-67
2021/03/30 07:32:03;;;;;;;35.00;22.80;;;;;;;;;;5039407;28;20201;-67
2021/03/30 07:34:47;;;;;;;33.80;23.20;;;;;;;;;;5053680;28;20177;-68
2021/03/30 07:37:24;;;;;;;35.37;23.30;;;;;;;;;;5028359;28;20193;-67
2021/03/30 07:39:53;;;;;;;35.53;22.37;;;;;;;;;;5030651;28;20194;-67
2021/03/30 07:42:18;;;;;;;37.47;24.42;;;;;;;;;;5031375;28;20181;-66
2021/03/30 07:44:46;;;;;;;33.93;22.47;;;;;;;;;;5030733;28;20537;-66
2021/03/30 07:47:12;;;;;;;36.38;22.30;;;;;;;;;;5032056;28;20185;-67
2021/03/30 07:49:41;;;;;;;31.67;21.70;;;;;;;;;;5026315;28;20194;-68
2021/03/30 07:52:17;;;;;;;34.08;21.30;;;;;;;;;;5028650;28;20298;-66
2021/03/30 07:55:01;;;;;;;32.13;21.52;;;;;;;;;;5027621;28;20256;-66
2021/03/30 07:57:44;;;;;;;32.13;22.08;;;;;;;;;;5024943;28;20197;-67
2021/03/30 08:00:10;;;;;;;34.20;22.15;;;;;;;;;;5025356;28;20255;-66
2021/03/30 08:02:36;;;;;;;29.73;21.55;;;;;;;;;;5028478;28;20178;-66
2021/03/30 08:05:03;;;;;;;29.50;20.58;;;;;;;;;;5030603;28;20223;-67
2021/03/30 08:07:44;;;;;;;30.33;20.80;;;;;;;;;;5031653;28;20209;-66
2021/03/30 08:10:21;;;;;;;32.40;22.95;;;;;;;;;;5026800;28;20209;-67
2021/03/30 08:12:46;;;;;;;34.25;22.02;;;;;;;;;;5032589;28;20186;-68
2021/03/30 08:15:31;;;;;;;33.17;20.60;;;;;;;;;;5024358;28;20573;-67
2021/03/30 08:17:56;;;;;;;28.35;19.60;;;;;;;;;;5025284;28;20209;-67
2021/03/30 08:20:25;;;;;;;30.40;20.58;;;;;;;;;;5027214;28;20198;-67
2021/03/30 08:23:01;;;;;;;29.23;20.02;;;;;;;;;;5026164;28;20678;-67
2021/03/30 08:25:26;;;;;;;28.98;20.20;;;;;;;;;;5029257;28;20567;-68
2021/03/30 08:27:52;;;;;;;32.13;21.08;;;;;;;;;;5033359;28;20190;-67
2021/03/30 08:30:26;;;;;;;31.40;19.83;;;;;;;;;;5028581;28;20232;-67
2021/03/30 08:32:53;;;;;;;31.60;20.70;;;;;;;;;;5031582;28;20208;-67
2021/03/30 08:35:27;;;;;;;27.38;19.55;;;;;;;;;;5027990;28;21183;-66
2021/03/30 08:37:52;;;;;;;26.13;19.10;;;;;;;;;;5026423;28;20215;-67
2021/03/30 08:40:50;;;;;;;31.48;20.63;;;;;;;;;;5025021;28;20594;-68
2021/03/30 08:43:16;;;;;;;26.52;19.17;;;;;;;;;;5026046;28;20717;-67
2021/03/30 08:45:53;;;;;;;27.52;19.08;;;;;;;;;;5031285;28;20170;-68
2021/03/30 08:48:29;;;;;;;25.20;17.52;;;;;;;;;;5029615;28;20197;-67
2021/03/30 08:50:55;;;;;;;25.80;17.75;;;;;;;;;;5024557;28;20602;-67
2021/03/30 08:53:20;;;;;;;26.48;18.27;;;;;;;;;;5029576;28;20521;-67
2021/03/30 08:55:45;;;;;;;33.35;18.85;;;;;;;;;;5025060;28;20620;-68
2021/03/30 08:58:11;;;;;;;26.20;17.15;;;;;;;;;;5025519;28;20205;-67
2021/03/30 09:00:36;;;;;;;27.48;17.55;;;;;;;;;;5023854;28;20202;-67
2021/03/30 09:03:02;;;;;;;21.60;16.60;;;;;;;;;;5029681;28;20260;-68
2021/03/30 09:05:34;;;;;;;27.35;17.92;;;;;;;;;;5029684;28;20197;-67
2021/03/30 09:08:00;;;;;;;29.50;18.23;;;;;;;;;;5029272;28;20666;-67
2021/03/30 09:10:25;;;;;;;23.70;17.88;;;;;;;;;;5023703;28;20309;-67
2021/03/30 09:12:50;;;;;;;25.30;17.73;;;;;;;;;;5031824;28;20276;-67
2021/03/30 09:15:16;;;;;;;25.23;18.90;;;;;;;;;;5025456;28;20431;-67
2021/03/30 09:17:53;;;;;;;24.02;17.13;;;;;;;;;;5027717;28;20904;-68
2021/03/30 09:20:18;;;;;;;26.35;17.17;;;;;;;;;;5025509;28;20194;-68
2021/03/30 09:22:46;;;;;;;24.52;16.83;;;;;;;;;;5024856;28;20228;-68
2021/03/30 09:27:43;;;;;;;26.75;18.25;;;;;;;;;;5031446;28;20228;-67
2021/03/30 09:30:10;;;;;;;22.38;16.80;;;;;;;;;;5023422;28;20301;-66
2021/03/30 09:32:36;;;;;;;26.83;17.73;;;;;;;;;;5026022;28;20682;-67
2021/03/30 09:35:09;;;;;;;21.42;16.50;;;;;;;;;;5025294;28;20189;-67
2021/03/30 09:37:35;;;;;;;25.58;18.20;;;;;;;;;;5029015;28;20295;-67
2021/03/30 09:40:04;;;;;;;22.08;16.70;;;;;;;;;;5026646;28;20211;-67
2021/03/30 09:42:30;;;;;;;22.85;16.33;;;;;;;;;;5028989;28;20518;-68
2021/03/30 09:44:55;;;;;;;26.67;17.00;;;;;;;;;;5024783;28;20178;-67
2021/03/30 09:47:21;;;;;;;25.73;17.30;;;;;;;;;;5033164;28;21866;-67
2021/03/30 09:49:46;;;;;;;26.50;18.27;;;;;;;;;;5025099;28;20672;-66
2021/03/30 09:52:11;;;;;;;25.02;18.80;;;;;;;;;;5025695;28;20205;-68
2021/03/30 09:54:41;;;;;;;23.40;17.05;;;;;;;;;;5025594;28;20189;-67
2021/03/30 09:57:15;;;;;;;20.95;15.38;;;;;;;;;;5023699;28;20706;-66
2021/03/30 09:59:44;;;;;;;21.30;14.63;;;;;;;;;;5023816;28;20197;-67
2021/03/30 10:02:09;;;;;;;20.42;15.13;;;;;;;;;;5029529;28;20182;-66
2021/03/30 10:04:35;;;;;;;22.25;15.10;;;;;;;;;;5030065;28;20236;-67
2021/03/30 10:07:11;;;;;;;21.30;15.60;;;;;;;;;;5028697;28;20236;-67
2021/03/30 10:09:53;;;;;;;23.85;15.23;;;;;;;;;;5024599;28;20201;-67
2021/03/30 10:12:28;;;;;;;20.08;14.65;;;;;;;;;;5026593;28;20278;-67
2021/03/30 10:14:53;;;;;;;22.17;13.80;;;;;;;;;;5022603;28;20285;-67
2021/03/30 10:17:18;;;;;;;20.48;14.63;;;;;;;;;;5024188;28;20992;-67
2021/03/30 10:19:49;;;;;;;16.23;12.77;;;;;;;;;;5024717;28;20237;-67
2021/03/30 10:22:21;;;;;;;19.10;13.93;;;;;;;;;;5029580;28;20573;-67
2021/03/30 10:25:05;;;;;;;20.88;14.25;;;;;;;;;;5024140;28;20186;-67
2021/03/30 10:27:31;;;;;;;16.33;11.65;;;;;;;;;;5023607;28;20250;-66
2021/03/30 10:29:56;;;;;;;17.35;12.20;;;;;;;;;;5025745;28;20210;-67
2021/03/30 10:32:21;;;;;;;15.40;10.45;;;;;;;;;;5027462;28;20190;-66
2021/03/30 10:34:47;;;;;;;15.95;11.00;;;;;;;;;;5033888;28;20664;-68
2021/03/30 10:37:14;;;;;;;13.32;8.45;;;;;;;;;;5027446;28;20239;-67
2021/03/30 10:39:44;;;;;;;16.65;11.15;;;;;;;;;;5022083;28;20185;-68
2021/03/30 10:42:10;;;;;;;18.98;12.45;;;;;;;;;;5024216;28;20182;-68
2021/03/30 10:44:35;;;;;;;19.85;11.35;;;;;;;;;;5020838;28;20194;-67
2021/03/30 10:47:11;;;;;;;19.80;12.53;;;;;;;;;;5026320;28;20213;-67
2021/03/30 10:49:36;;;;;;;15.77;12.02;;;;;;;;;;5022881;28;20523;-66
2021/03/30 10:52:01;;;;;;;13.90;10.33;;;;;;;;;;5025255;28;20174;-67
2021/03/30 10:54:26;;;;;;;15.75;10.77;;;;;;;;;;5023872;28;20643;-67
2021/03/30 10:56:52;;;;;;;12.60;9.67;;;;;;;;;;5025314;28;20174;-67
2021/03/30 10:59:17;;;;;;;17.38;12.45;;;;;;;;;;5023683;28;20798;-67
2021/03/30 11:01:42;;;;;;;15.80;12.50;;;;;;;;;;5025461;28;20297;-68
2021/03/30 11:04:08;;;;;;;16.80;12.10;;;;;;;;;;5028666;28;20449;-67
2021/03/30 11:06:33;;;;;;;18.08;12.18;;;;;;;;;;5035216;28;20231;-68
2021/03/30 11:08:59;;;;;;;20.75;13.50;;;;;;;;;;5026788;28;20577;-67
2021/03/30 11:11:24;;;;;;;20.70;13.77;;;;;;;;;;5028281;28;20209;-68
2021/03/30 11:13:49;;;;;;;19.58;13.82;;;;;;;;;;5029964;28;20194;-65
2021/03/30 11:16:15;;;;;;;22.30;12.90;;;;;;;;;;5037444;28;20204;-67
2021/03/30 11:18:40;;;;;;;20.35;15.23;;;;;;;;;;5030998;28;20210;-67
2021/03/30 11:21:05;;;;;;;18.90;13.27;;;;;;;;;;5024706;28;20209;-67
2021/03/30 11:23:30;;;;;;;18.75;13.70;;;;;;;;;;5035376;28;20192;-67
2021/03/30 11:25:55;;;;;;;18.97;13.93;;;;;;;;;;5027262;28;20212;-68
2021/03/30 11:28:21;;;;;;;16.98;11.93;;;;;;;;;;5034065;28;20959;-67
2021/03/30 11:30:58;;;;;;;19.00;12.63;;;;;;;;;;5026862;28;20229;-67
2021/03/30 11:38:16;;;;;;;20.17;12.47;;;;;;;;;;5026794;28;20777;-67
2021/03/30 11:40:41;;;;;;;18.60;13.43;;;;;;;;;;5030373;28;20307;-67
2021/03/30 11:43:07;;;;;;;19.98;13.82;;;;;;;;;;5025548;28;20177;-67
2021/03/30 11:45:32;;;;;;;21.50;14.07;;;;;;;;;;5025190;28;20201;-66
2021/03/30 11:47:58;;;;;;;21.53;13.33;;;;;;;;;;5026293;28;20186;-66
2021/03/30 11:50:24;;;;;;;18.77;13.50;;;;;;;;;;5024887;28;20451;-67
2021/03/30 11:52:49;;;;;;;18.25;12.40;;;;;;;;;;5029496;28;20308;-67
2021/03/30 11:55:14;;;;;;;18.02;13.30;;;;;;;;;;5025716;28;20191;-68
2021/03/30 11:57:41;;;;;;;17.23;13.20;;;;;;;;;;5029472;28;20212;-67
2021/03/30 12:00:07;;;;;;;16.55;11.63;;;;;;;;;;5026055;28;20218;-67
2021/03/30 12:02:32;;;;;;;19.25;12.95;;;;;;;;;;5026153;28;20639;-65
2021/03/30 12:04:57;;;;;;;17.03;12.77;;;;;;;;;;5033910;28;20188;-68
2021/03/30 12:07:22;;;;;;;21.23;14.97;;;;;;;;;;5027956;28;20609;-68
2021/03/30 12:09:47;;;;;;;19.53;13.70;;;;;;;;;;5030172;28;20977;-67
2021/03/30 12:12:13;;;;;;;16.80;11.90;;;;;;;;;;5025725;28;20442;-68
2021/03/30 12:14:38;;;;;;;16.17;11.65;;;;;;;;;;5028065;28;20197;-67
2021/03/30 12:17:04;;;;;;;18.15;11.63;;;;;;;;;;5028597;28;20178;-69
2021/03/30 12:19:29;;;;;;;20.92;13.35;;;;;;;;;;5024379;28;20190;-66
2021/03/30 12:21:54;;;;;;;18.60;12.80;;;;;;;;;;5031638;28;20181;-67
2021/03/30 12:24:19;;;;;;;21.63;13.55;;;;;;;;;;5029294;28;20904;-66
2021/03/30 12:26:44;;;;;;;18.67;13.23;;;;;;;;;;5025393;28;20660;-67
2021/03/30 12:29:10;;;;;;;20.60;14.40;;;;;;;;;;5025171;28;21075;-68
2021/03/30 12:31:35;;;;;;;20.08;13.63;;;;;;;;;;5026327;28;20447;-66
2021/03/30 12:34:01;;;;;;;16.83;11.43;;;;;;;;;;5031331;28;20190;-66
2021/03/30 12:36:26;;;;;;;19.05;11.27;;;;;;;;;;5030156;28;20174;-67
2021/03/30 12:38:51;;;;;;;17.15;10.70;;;;;;;;;;5030142;28;20291;-67
2021/03/30 12:41:17;;;;;;;15.15;10.73;;;;;;;;;;5025681;28;20550;-66
2021/03/30 12:43:43;;;;;;;16.13;10.52;;;;;;;;;;5029394;28;20199;-67
2021/03/30 12:46:08;;;;;;;18.30;12.40;;;;;;;;;;5024683;28;20201;-67
2021/03/30 12:48:33;;;;;;;16.30;10.93;;;;;;;;;;5024849;28;20763;-66
2021/03/30 12:50:59;;;;;;;16.15;11.02;;;;;;;;;;5025237;28;20209;-66
2021/03/30 12:53:24;;;;;;;13.93;10.00;;;;;;;;;;5025848;28;20618;-67
2021/03/30 12:55:49;;;;;;;14.10;9.57;;;;;;;;;;5026449;28;20183;-66
2021/03/30 12:58:14;;;;;;;15.70;9.90;;;;;;;;;;5030451;28;20252;-67
2021/03/30 13:00:40;;;;;;;14.00;10.40;;;;;;;;;;5026170;28;20439;-66
2021/03/30 13:03:05;;;;;;;15.47;10.30;;;;;;;;;;5034613;28;20858;-67
2021/03/30 13:05:30;;;;;;;17.43;11.57;;;;;;;;;;5025634;28;20296;-67
2021/03/30 13:07:55;;;;;;;17.10;11.23;;;;;;;;;;5031302;28;20647;-67
2021/03/30 13:10:20;;;;;;;19.23;11.57;;;;;;;;;;5023373;28;20209;-67
2021/03/30 13:12:46;;;;;;;18.83;12.48;;;;;;;;;;5033410;28;20221;-66
2021/03/30 13:15:11;;;;;;;16.47;12.73;;;;;;;;;;5023815;28;20204;-67
2021/03/30 13:17:36;;;;;;;18.60;13.23;;;;;;;;;;5030690;28;20845;-66
2021/03/30 13:20:03;;;;;;;20.70;13.52;;;;;;;;;;5024917;28;20215;-66
2021/03/30 13:22:29;;;;;;;21.80;13.30;;;;;;;;;;5028356;28;20188;-67
2021/03/30 13:24:57;;;;;;;23.10;15.23;;;;;;;;;;5033486;28;20631;-67
2021/03/30 13:27:23;;;;;;;24.13;13.60;;;;;;;;;;5027544;28;20190;-67
2021/03/30 13:29:48;;;;;;;21.25;14.25;;;;;;;;;;5022238;28;20209;-67
2021/03/30 13:32:14;;;;;;;20.83;14.80;;;;;;;;;;5024479;28;20660;-66
2021/03/30 13:34:40;;;;;;;21.67;15.35;;;;;;;;;;5023623;28;20178;-67
2021/03/30 13:37:06;;;;;;;22.00;14.25;;;;;;;;;;5022972;28;20186;-67
2021/03/30 13:39:31;;;;;;;20.15;13.85;;;;;;;;;;5023948;28;20187;-67
2021/03/30 13:41:57;;;;;;;21.05;15.23;;;;;;;;;;5025800;28;20204;-67
2021/03/30 13:44:24;;;;;;;22.33;14.40;;;;;;;;;;5025765;28;20659;-67
2021/03/30 13:46:49;;;;;;;18.08;12.73;;;;;;;;;;5023259;28;20174;-67
2021/03/30 13:49:17;;;;;;;17.10;12.48;;;;;;;;;;5023891;28;20186;-67
2021/03/30 13:51:46;;;;;;;20.48;14.55;;;;;;;;;;5025308;28;20258;-66
2021/03/30 13:54:12;;;;;;;22.40;14.82;;;;;;;;;;5022743;28;20573;-66
2021/03/30 13:56:37;;;;;;;23.13;14.27;;;;;;;;;;5026047;28;20174;-67
2021/03/30 13:59:02;;;;;;;21.80;13.40;;;;;;;;;;5028188;28;20300;-67
2021/03/30 14:01:28;;;;;;;19.20;12.88;;;;;;;;;;5023191;28;20209;-68
2021/03/30 14:03:53;;;;;;;20.13;13.57;;;;;;;;;;5030145;28;20194;-67
2021/03/30 14:06:18;;;;;;;20.17;13.10;;;;;;;;;;5028644;28;20423;-66
2021/03/30 14:08:43;;;;;;;21.17;12.87;;;;;;;;;;5027770;28;20431;-68
2021/03/30 14:11:08;;;;;;;18.97;13.07;;;;;;;;;;5023060;28;20506;-67
2021/03/30 14:13:44;;;;;;;18.27;13.10;;;;;;;;;;5023988;28;20441;-67
2021/03/30 14:16:15;;;;;;;21.33;13.30;;;;;;;;;;5025436;28;20659;-67
2021/03/30 14:21:11;;;;;;;20.45;13.18;;;;;;;;;;5026501;28;20581;-67
2021/03/30 14:23:39;;;;;;;21.48;14.02;;;;;;;;;;5029894;28;20185;-68
2021/03/30 14:26:10;;;;;;;20.70;13.75;;;;;;;;;;5021857;28;20174;-67
2021/03/30 14:28:35;;;;;;;22.08;13.63;;;;;;;;;;5022400;28;20268;-68
2021/03/30 14:31:00;;;;;;;19.47;13.80;;;;;;;;;;5023287;28;20206;-67